sensor_id;sensor_type;location;lat;lon;timestamp;temperature;humidity
31967;DHT22;18496;52.042;6.812;2022-12-10T00:02:03;3.10;99.90
31967;DHT22;18496;52.042;6.812;2022-12-10T00:04:07;3.10;99.90
31967;DHT22;18496;52.042;6.812;2022-12-10T00:06:14;3.10;99.90
31967;DHT22;18496;52.042;6.812;2022-12-10T00:08:17;3.10;99.90
31967;DHT22;18496;52.042;6.812;2022-12-10T00:10:21;3.10;99.90
31967;DHT22;18496;52.042;6.812;2022-12-10T00:12:25;3.10;99.90
31967;DHT22;18496;52.042;6.812;2022-12-10T00:14:29;3.20;99.90
31967;DHT22;18496;52.042;6.812;2022-12-10T00:16:33;3.20;99.90
31967;DHT22;18496;52.042;6.812;2022-12-10T00:18:38;3.20;99.90
31967;DHT22;18496;52.042;6.812;2022-12-10T00:20:42;3.20;99.90
31967;DHT22;18496;52.042;6.812;2022-12-10T00:22:45;3.20;99.90
31967;DHT22;18496;52.042;6.812;2022-12-10T00:24:49;3.10;99.90
31967;DHT22;18496;52.042;6.812;2022-12-10T00:26:52;3.10;99.90
31967;DHT22;18496;52.042;6.812;2022-12-10T00:28:56;3.10;99.90
31967;DHT22;18496;52.042;6.812;2022-12-10T00:31:05;3.10;99.90
31967;DHT22;18496;52.042;6.812;2022-12-10T00:33:09;3.10;99.90
31967;DHT22;18496;52.042;6.812;2022-12-10T00:35:12;3.10;99.90
31967;DHT22;18496;52.042;6.812;2022-12-10T00:37:16;3.10;99.90
31967;DHT22;18496;52.042;6.812;2022-12-10T00:39:20;3.10;99.90
31967;DHT22;18496;52.042;6.812;2022-12-10T00:41:24;3.10;99.90
31967;DHT22;18496;52.042;6.812;2022-12-10T00:43:27;3.00;99.90
31967;DHT22;18496;52.042;6.812;2022-12-10T00:45:31;3.00;99.90
31967;DHT22;18496;52.042;6.812;2022-12-10T00:47:35;3.00;99.90
31967;DHT22;18496;52.042;6.812;2022-12-10T00:49:38;2.90;99.90
31967;DHT22;18496;52.042;6.812;2022-12-10T00:51:42;2.90;99.90
31967;DHT22;18496;52.042;6.812;2022-12-10T00:53:50;2.90;99.90
31967;DHT22;18496;52.042;6.812;2022-12-10T00:55:55;2.90;99.90
31967;DHT22;18496;52.042;6.812;2022-12-10T00:57:59;2.90;99.90
31967;DHT22;18496;52.042;6.812;2022-12-10T01:00:03;2.80;99.90
31967;DHT22;18496;52.042;6.812;2022-12-10T01:02:07;2.80;99.90
31967;DHT22;18496;52.042;6.812;2022-12-10T01:04:15;2.80;99.90
31967;DHT22;18496;52.042;6.812;2022-12-10T01:06:29;2.80;99.90
31967;DHT22;18496;52.042;6.812;2022-12-10T01:08:32;2.80;99.90
31967;DHT22;18496;52.042;6.812;2022-12-10T01:10:36;2.70;99.90
31967;DHT22;18496;52.042;6.812;2022-12-10T01:12:40;2.80;99.90
31967;DHT22;18496;52.042;6.812;2022-12-10T01:14:43;2.80;99.90
31967;DHT22;18496;52.042;6.812;2022-12-10T01:16:47;2.80;99.90
31967;DHT22;18496;52.042;6.812;2022-12-10T01:18:56;2.80;99.90
31967;DHT22;18496;52.042;6.812;2022-12-10T01:21:05;2.80;99.90
31967;DHT22;18496;52.042;6.812;2022-12-10T01:23:08;2.80;99.90
31967;DHT22;18496;52.042;6.812;2022-12-10T01:25:12;2.70;99.90
31967;DHT22;18496;52.042;6.812;2022-12-10T01:27:16;2.70;99.90
31967;DHT22;18496;52.042;6.812;2022-12-10T01:29:20;2.70;99.90
31967;DHT22;18496;52.042;6.812;2022-12-10T01:31:29;2.60;99.90
31967;DHT22;18496;52.042;6.812;2022-12-10T01:33:34;2.60;99.90
31967;DHT22;18496;52.042;6.812;2022-12-10T01:35:38;2.60;99.90
31967;DHT22;18496;52.042;6.812;2022-12-10T01:37:42;2.60;99.90
31967;DHT22;18496;52.042;6.812;2022-12-10T01:39:45;2.60;99.90
31967;DHT22;18496;52.042;6.812;2022-12-10T01:41:56;2.60;99.90
31967;DHT22;18496;52.042;6.812;2022-12-10T01:46:11;2.50;99.90
31967;DHT22;18496;52.042;6.812;2022-12-10T01:48:15;2.50;99.90
31967;DHT22;18496;52.042;6.812;2022-12-10T01:50:19;2.40;99.90
31967;DHT22;18496;52.042;6.812;2022-12-10T01:52:22;2.40;99.90
31967;DHT22;18496;52.042;6.812;2022-12-10T01:54:33;2.50;99.90
31967;DHT22;18496;52.042;6.812;2022-12-10T01:56:43;2.50;99.90
31967;DHT22;18496;52.042;6.812;2022-12-10T01:58:49;2.40;99.90
31967;DHT22;18496;52.042;6.812;2022-12-10T02:01:23;2.40;99.90
31967;DHT22;18496;52.042;6.812;2022-12-10T02:03:42;2.40;99.90
31967;DHT22;18496;52.042;6.812;2022-12-10T02:06:01;2.40;99.90
31967;DHT22;18496;52.042;6.812;2022-12-10T02:10:55;2.30;99.90
31967;DHT22;18496;52.042;6.812;2022-12-10T02:15:22;2.30;99.90
31967;DHT22;18496;52.042;6.812;2022-12-10T02:17:37;2.30;99.90
31967;DHT22;18496;52.042;6.812;2022-12-10T02:22:08;2.30;99.90
31967;DHT22;18496;52.042;6.812;2022-12-10T02:24:20;2.20;99.90
31967;DHT22;18496;52.042;6.812;2022-12-10T02:26:41;2.20;99.90
31967;DHT22;18496;52.042;6.812;2022-12-10T02:31:19;2.20;99.90
31967;DHT22;18496;52.042;6.812;2022-12-10T02:33:25;2.10;99.90
31967;DHT22;18496;52.042;6.812;2022-12-10T02:35:31;2.10;99.90
31967;DHT22;18496;52.042;6.812;2022-12-10T02:37:45;2.10;99.90
31967;DHT22;18496;52.042;6.812;2022-12-10T02:39:55;2.10;99.90
31967;DHT22;18496;52.042;6.812;2022-12-10T02:42:01;2.10;99.90
31967;DHT22;18496;52.042;6.812;2022-12-10T02:44:11;2.20;99.90
31967;DHT22;18496;52.042;6.812;2022-12-10T02:46:16;2.20;99.90
31967;DHT22;18496;52.042;6.812;2022-12-10T02:48:20;2.20;99.90
31967;DHT22;18496;52.042;6.812;2022-12-10T02:50:25;2.30;99.90
31967;DHT22;18496;52.042;6.812;2022-12-10T02:52:29;2.30;99.90
31967;DHT22;18496;52.042;6.812;2022-12-10T02:54:37;2.30;99.90
31967;DHT22;18496;52.042;6.812;2022-12-10T02:56:52;2.30;99.90
31967;DHT22;18496;52.042;6.812;2022-12-10T03:03:41;2.30;99.90
31967;DHT22;18496;52.042;6.812;2022-12-10T03:08:24;2.30;99.90
31967;DHT22;18496;52.042;6.812;2022-12-10T03:10:45;2.20;99.90
31967;DHT22;18496;52.042;6.812;2022-12-10T03:12:58;2.20;99.90
31967;DHT22;18496;52.042;6.812;2022-12-10T03:15:05;2.20;99.90
31967;DHT22;18496;52.042;6.812;2022-12-10T03:17:11;2.10;99.90
31967;DHT22;18496;52.042;6.812;2022-12-10T03:19:18;2.10;99.90
31967;DHT22;18496;52.042;6.812;2022-12-10T03:21:25;2.00;99.90
31967;DHT22;18496;52.042;6.812;2022-12-10T03:23:33;1.90;99.90
31967;DHT22;18496;52.042;6.812;2022-12-10T03:25:39;1.90;99.90
31967;DHT22;18496;52.042;6.812;2022-12-10T03:27:43;1.90;99.90
31967;DHT22;18496;52.042;6.812;2022-12-10T03:29:51;1.90;99.90
31967;DHT22;18496;52.042;6.812;2022-12-10T03:31:56;1.80;99.90
31967;DHT22;18496;52.042;6.812;2022-12-10T03:34:01;1.80;99.90
31967;DHT22;18496;52.042;6.812;2022-12-10T03:36:06;1.80;99.90
31967;DHT22;18496;52.042;6.812;2022-12-10T03:38:11;1.80;99.90
31967;DHT22;18496;52.042;6.812;2022-12-10T03:40:18;1.70;99.90
31967;DHT22;18496;52.042;6.812;2022-12-10T03:42:21;1.70;99.90
31967;DHT22;18496;52.042;6.812;2022-12-10T03:44:33;1.70;99.90
31967;DHT22;18496;52.042;6.812;2022-12-10T03:46:40;1.70;99.90
31967;DHT22;18496;52.042;6.812;2022-12-10T03:48:43;1.80;99.90
31967;DHT22;18496;52.042;6.812;2022-12-10T03:50:47;1.70;99.90
31967;DHT22;18496;52.042;6.812;2022-12-10T03:52:51;1.80;99.90
31967;DHT22;18496;52.042;6.812;2022-12-10T03:54:54;1.80;99.90
31967;DHT22;18496;52.042;6.812;2022-12-10T03:56:58;1.70;99.90
31967;DHT22;18496;52.042;6.812;2022-12-10T03:59:01;1.70;99.90
31967;DHT22;18496;52.042;6.812;2022-12-10T04:01:05;1.70;99.90
31967;DHT22;18496;52.042;6.812;2022-12-10T04:03:09;1.70;99.90
31967;DHT22;18496;52.042;6.812;2022-12-10T04:05:13;1.70;99.90
31967;DHT22;18496;52.042;6.812;2022-12-10T04:07:16;1.70;99.90
31967;DHT22;18496;52.042;6.812;2022-12-10T04:09:20;1.80;99.90
31967;DHT22;18496;52.042;6.812;2022-12-10T04:11:24;1.80;99.90
31967;DHT22;18496;52.042;6.812;2022-12-10T04:13:27;1.70;99.90
31967;DHT22;18496;52.042;6.812;2022-12-10T04:15:49;1.70;99.90
31967;DHT22;18496;52.042;6.812;2022-12-10T04:18:12;1.70;99.90
31967;DHT22;18496;52.042;6.812;2022-12-10T04:20:15;1.70;99.90
31967;DHT22;18496;52.042;6.812;2022-12-10T04:22:37;1.70;99.90
31967;DHT22;18496;52.042;6.812;2022-12-10T04:25:00;1.70;99.90
31967;DHT22;18496;52.042;6.812;2022-12-10T04:27:28;1.70;99.90
31967;DHT22;18496;52.042;6.812;2022-12-10T04:29:32;1.70;99.90
31967;DHT22;18496;52.042;6.812;2022-12-10T04:31:36;1.60;99.90
31967;DHT22;18496;52.042;6.812;2022-12-10T04:33:39;1.60;99.90
31967;DHT22;18496;52.042;6.812;2022-12-10T04:35:43;1.60;99.90
31967;DHT22;18496;52.042;6.812;2022-12-10T04:37:46;1.60;99.90
31967;DHT22;18496;52.042;6.812;2022-12-10T04:39:53;1.60;99.90
31967;DHT22;18496;52.042;6.812;2022-12-10T04:41:57;1.60;99.90
31967;DHT22;18496;52.042;6.812;2022-12-10T04:44:01;1.60;99.90
31967;DHT22;18496;52.042;6.812;2022-12-10T04:46:05;1.60;99.90
31967;DHT22;18496;52.042;6.812;2022-12-10T04:48:09;1.60;99.90
31967;DHT22;18496;52.042;6.812;2022-12-10T04:50:12;1.60;99.90
31967;DHT22;18496;52.042;6.812;2022-12-10T04:52:16;1.50;99.90
31967;DHT22;18496;52.042;6.812;2022-12-10T04:54:20;1.60;99.90
31967;DHT22;18496;52.042;6.812;2022-12-10T04:56:24;1.50;99.90
31967;DHT22;18496;52.042;6.812;2022-12-10T04:58:27;1.50;99.90
31967;DHT22;18496;52.042;6.812;2022-12-10T05:00:34;1.50;99.90
31967;DHT22;18496;52.042;6.812;2022-12-10T05:02:37;1.40;99.90
31967;DHT22;18496;52.042;6.812;2022-12-10T05:04:41;1.40;99.90
31967;DHT22;18496;52.042;6.812;2022-12-10T05:06:47;1.40;99.90
31967;DHT22;18496;52.042;6.812;2022-12-10T05:08:50;1.40;99.90
31967;DHT22;18496;52.042;6.812;2022-12-10T05:10:54;1.40;99.90
31967;DHT22;18496;52.042;6.812;2022-12-10T05:12:58;1.50;99.90
31967;DHT22;18496;52.042;6.812;2022-12-10T05:15:01;1.50;99.90
31967;DHT22;18496;52.042;6.812;2022-12-10T05:17:05;1.50;99.90
31967;DHT22;18496;52.042;6.812;2022-12-10T05:19:10;1.50;99.90
31967;DHT22;18496;52.042;6.812;2022-12-10T05:21:16;1.40;99.90
31967;DHT22;18496;52.042;6.812;2022-12-10T05:23:20;1.40;99.90
31967;DHT22;18496;52.042;6.812;2022-12-10T05:25:32;1.50;99.90
31967;DHT22;18496;52.042;6.812;2022-12-10T05:27:55;1.50;99.90
31967;DHT22;18496;52.042;6.812;2022-12-10T05:29:59;1.40;99.90
31967;DHT22;18496;52.042;6.812;2022-12-10T05:32:03;1.40;99.90
31967;DHT22;18496;52.042;6.812;2022-12-10T05:34:10;1.40;99.90
31967;DHT22;18496;52.042;6.812;2022-12-10T05:36:16;1.40;99.90
31967;DHT22;18496;52.042;6.812;2022-12-10T05:38:21;1.30;99.90
31967;DHT22;18496;52.042;6.812;2022-12-10T05:40:24;1.30;99.90
31967;DHT22;18496;52.042;6.812;2022-12-10T05:42:28;1.30;99.90
31967;DHT22;18496;52.042;6.812;2022-12-10T05:44:32;1.20;99.90
31967;DHT22;18496;52.042;6.812;2022-12-10T05:46:35;1.20;99.90
31967;DHT22;18496;52.042;6.812;2022-12-10T05:48:39;1.20;99.90
31967;DHT22;18496;52.042;6.812;2022-12-10T05:50:46;1.20;99.90
31967;DHT22;18496;52.042;6.812;2022-12-10T05:52:50;1.10;99.90
31967;DHT22;18496;52.042;6.812;2022-12-10T05:54:54;1.10;99.90
31967;DHT22;18496;52.042;6.812;2022-12-10T05:56:57;1.10;99.90
31967;DHT22;18496;52.042;6.812;2022-12-10T05:59:03;1.10;99.90
31967;DHT22;18496;52.042;6.812;2022-12-10T06:01:09;1.10;99.90
31967;DHT22;18496;52.042;6.812;2022-12-10T06:03:13;1.00;99.90
31967;DHT22;18496;52.042;6.812;2022-12-10T06:05:17;1.00;99.90
31967;DHT22;18496;52.042;6.812;2022-12-10T06:07:20;1.00;99.90
31967;DHT22;18496;52.042;6.812;2022-12-10T06:09:24;1.10;99.90
31967;DHT22;18496;52.042;6.812;2022-12-10T06:11:28;1.10;99.90
31967;DHT22;18496;52.042;6.812;2022-12-10T06:13:32;1.10;99.90
31967;DHT22;18496;52.042;6.812;2022-12-10T06:15:41;1.10;99.90
31967;DHT22;18496;52.042;6.812;2022-12-10T06:17:44;1.10;99.90
31967;DHT22;18496;52.042;6.812;2022-12-10T06:19:48;1.10;99.90
31967;DHT22;18496;52.042;6.812;2022-12-10T06:21:51;1.10;99.90
31967;DHT22;18496;52.042;6.812;2022-12-10T06:23:55;1.10;99.90
31967;DHT22;18496;52.042;6.812;2022-12-10T06:25:59;1.10;99.90
31967;DHT22;18496;52.042;6.812;2022-12-10T06:28:07;1.10;99.90
31967;DHT22;18496;52.042;6.812;2022-12-10T06:30:11;1.10;99.90
31967;DHT22;18496;52.042;6.812;2022-12-10T06:32:14;1.10;99.90
31967;DHT22;18496;52.042;6.812;2022-12-10T06:34:18;1.10;99.90
31967;DHT22;18496;52.042;6.812;2022-12-10T06:36:23;1.10;99.90
31967;DHT22;18496;52.042;6.812;2022-12-10T06:38:27;1.10;99.90
31967;DHT22;18496;52.042;6.812;2022-12-10T06:40:30;1.10;99.90
31967;DHT22;18496;52.042;6.812;2022-12-10T06:42:34;1.10;99.90
31967;DHT22;18496;52.042;6.812;2022-12-10T06:44:37;1.10;99.90
31967;DHT22;18496;52.042;6.812;2022-12-10T06:46:41;1.10;99.90
31967;DHT22;18496;52.042;6.812;2022-12-10T06:48:45;1.10;99.90
31967;DHT22;18496;52.042;6.812;2022-12-10T06:50:50;1.00;99.90
31967;DHT22;18496;52.042;6.812;2022-12-10T06:52:54;1.00;99.90
31967;DHT22;18496;52.042;6.812;2022-12-10T06:54:58;1.00;99.90
31967;DHT22;18496;52.042;6.812;2022-12-10T06:57:01;1.00;99.90
31967;DHT22;18496;52.042;6.812;2022-12-10T06:59:05;1.00;99.90
31967;DHT22;18496;52.042;6.812;2022-12-10T07:01:15;1.00;99.90
31967;DHT22;18496;52.042;6.812;2022-12-10T07:03:19;1.00;99.90
31967;DHT22;18496;52.042;6.812;2022-12-10T07:05:23;1.00;99.90
31967;DHT22;18496;52.042;6.812;2022-12-10T07:07:26;1.00;99.90
31967;DHT22;18496;52.042;6.812;2022-12-10T07:09:30;0.90;99.90
31967;DHT22;18496;52.042;6.812;2022-12-10T07:11:35;1.00;99.90
31967;DHT22;18496;52.042;6.812;2022-12-10T07:13:39;1.00;99.90
31967;DHT22;18496;52.042;6.812;2022-12-10T07:15:43;1.00;99.90
31967;DHT22;18496;52.042;6.812;2022-12-10T07:17:50;1.00;99.90
31967;DHT22;18496;52.042;6.812;2022-12-10T07:19:53;1.00;99.90
31967;DHT22;18496;52.042;6.812;2022-12-10T07:21:57;1.00;99.90
31967;DHT22;18496;52.042;6.812;2022-12-10T07:24:04;1.00;99.90
31967;DHT22;18496;52.042;6.812;2022-12-10T07:26:08;1.10;99.90
31967;DHT22;18496;52.042;6.812;2022-12-10T07:28:11;1.10;99.90
31967;DHT22;18496;52.042;6.812;2022-12-10T07:30:15;1.10;99.90
31967;DHT22;18496;52.042;6.812;2022-12-10T07:32:19;1.10;99.90
31967;DHT22;18496;52.042;6.812;2022-12-10T07:34:22;1.10;99.90
31967;DHT22;18496;52.042;6.812;2022-12-10T07:36:26;1.10;99.90
31967;DHT22;18496;52.042;6.812;2022-12-10T07:38:30;1.20;99.90
31967;DHT22;18496;52.042;6.812;2022-12-10T07:40:34;1.20;99.90
31967;DHT22;18496;52.042;6.812;2022-12-10T07:42:37;1.20;99.90
31967;DHT22;18496;52.042;6.812;2022-12-10T07:44:41;1.30;99.90
31967;DHT22;18496;52.042;6.812;2022-12-10T07:46:45;1.30;99.90
31967;DHT22;18496;52.042;6.812;2022-12-10T07:48:49;1.30;99.90
31967;DHT22;18496;52.042;6.812;2022-12-10T07:50:57;1.30;99.90
31967;DHT22;18496;52.042;6.812;2022-12-10T07:53:01;1.40;99.90
31967;DHT22;18496;52.042;6.812;2022-12-10T07:55:05;1.40;99.90
31967;DHT22;18496;52.042;6.812;2022-12-10T07:57:08;1.40;99.90
31967;DHT22;18496;52.042;6.812;2022-12-10T07:59:12;1.40;99.90
31967;DHT22;18496;52.042;6.812;2022-12-10T08:01:18;1.30;99.90
31967;DHT22;18496;52.042;6.812;2022-12-10T08:03:22;1.40;99.90
31967;DHT22;18496;52.042;6.812;2022-12-10T08:05:27;1.40;99.90
31967;DHT22;18496;52.042;6.812;2022-12-10T08:07:32;1.40;99.90
31967;DHT22;18496;52.042;6.812;2022-12-10T08:09:39;1.40;99.90
31967;DHT22;18496;52.042;6.812;2022-12-10T08:11:44;1.40;99.90
31967;DHT22;18496;52.042;6.812;2022-12-10T08:13:48;1.40;99.90
31967;DHT22;18496;52.042;6.812;2022-12-10T08:15:53;1.30;99.90
31967;DHT22;18496;52.042;6.812;2022-12-10T08:17:57;1.30;99.90
31967;DHT22;18496;52.042;6.812;2022-12-10T08:20:00;1.40;99.90
31967;DHT22;18496;52.042;6.812;2022-12-10T08:22:04;1.30;99.90
31967;DHT22;18496;52.042;6.812;2022-12-10T08:24:08;1.30;99.90
31967;DHT22;18496;52.042;6.812;2022-12-10T08:26:17;1.30;99.90
31967;DHT22;18496;52.042;6.812;2022-12-10T08:28:21;1.40;99.90
31967;DHT22;18496;52.042;6.812;2022-12-10T08:30:24;1.30;99.90
31967;DHT22;18496;52.042;6.812;2022-12-10T08:32:28;1.40;99.90
31967;DHT22;18496;52.042;6.812;2022-12-10T08:34:31;1.40;99.90
31967;DHT22;18496;52.042;6.812;2022-12-10T08:36:35;1.50;99.90
31967;DHT22;18496;52.042;6.812;2022-12-10T08:38:39;1.50;99.90
31967;DHT22;18496;52.042;6.812;2022-12-10T08:40:43;1.40;99.90
31967;DHT22;18496;52.042;6.812;2022-12-10T08:42:47;1.50;99.90
31967;DHT22;18496;52.042;6.812;2022-12-10T08:44:51;1.50;99.90
31967;DHT22;18496;52.042;6.812;2022-12-10T08:46:55;1.40;99.90
31967;DHT22;18496;52.042;6.812;2022-12-10T08:48:58;1.40;99.90
31967;DHT22;18496;52.042;6.812;2022-12-10T08:51:03;1.40;99.90
31967;DHT22;18496;52.042;6.812;2022-12-10T08:53:08;1.40;99.90
31967;DHT22;18496;52.042;6.812;2022-12-10T08:55:11;1.40;99.90
31967;DHT22;18496;52.042;6.812;2022-12-10T08:57:15;1.30;99.90
31967;DHT22;18496;52.042;6.812;2022-12-10T08:59:19;1.30;99.90
31967;DHT22;18496;52.042;6.812;2022-12-10T09:01:22;1.30;99.90
31967;DHT22;18496;52.042;6.812;2022-12-10T09:03:26;1.20;99.90
31967;DHT22;18496;52.042;6.812;2022-12-10T09:05:30;1.20;99.90
31967;DHT22;18496;52.042;6.812;2022-12-10T09:07:33;1.20;99.90
31967;DHT22;18496;52.042;6.812;2022-12-10T09:09:37;1.10;99.90
31967;DHT22;18496;52.042;6.812;2022-12-10T09:11:41;1.10;99.90
31967;DHT22;18496;52.042;6.812;2022-12-10T09:13:44;1.20;99.90
31967;DHT22;18496;52.042;6.812;2022-12-10T09:15:50;1.20;99.90
31967;DHT22;18496;52.042;6.812;2022-12-10T09:17:54;1.20;99.90
31967;DHT22;18496;52.042;6.812;2022-12-10T09:19:57;1.20;99.90
31967;DHT22;18496;52.042;6.812;2022-12-10T09:22:01;1.20;99.90
31967;DHT22;18496;52.042;6.812;2022-12-10T09:24:05;1.20;99.90
31967;DHT22;18496;52.042;6.812;2022-12-10T09:26:11;1.10;99.90
31967;DHT22;18496;52.042;6.812;2022-12-10T09:28:15;1.10;99.90
31967;DHT22;18496;52.042;6.812;2022-12-10T09:30:18;1.10;99.90
31967;DHT22;18496;52.042;6.812;2022-12-10T09:32:22;1.10;99.90
31967;DHT22;18496;52.042;6.812;2022-12-10T09:34:26;1.20;99.90
31967;DHT22;18496;52.042;6.812;2022-12-10T09:36:29;1.10;99.90
31967;DHT22;18496;52.042;6.812;2022-12-10T09:38:38;1.20;99.90
31967;DHT22;18496;52.042;6.812;2022-12-10T09:41:46;1.10;99.90
31967;DHT22;18496;52.042;6.812;2022-12-10T09:43:40;1.10;99.90
31967;DHT22;18496;52.042;6.812;2022-12-10T09:46:06;1.00;99.90
31967;DHT22;18496;52.042;6.812;2022-12-10T09:48:24;1.00;99.90
31967;DHT22;18496;52.042;6.812;2022-12-10T09:50:40;1.00;99.90
31967;DHT22;18496;52.042;6.812;2022-12-10T09:52:48;0.90;99.90
31967;DHT22;18496;52.042;6.812;2022-12-10T09:54:56;0.90;99.90
31967;DHT22;18496;52.042;6.812;2022-12-10T09:57:03;0.90;99.90
31967;DHT22;18496;52.042;6.812;2022-12-10T09:59:23;0.90;99.90
31967;DHT22;18496;52.042;6.812;2022-12-10T10:01:29;0.90;99.90
31967;DHT22;18496;52.042;6.812;2022-12-10T10:03:38;1.00;99.90
31967;DHT22;18496;52.042;6.812;2022-12-10T10:05:46;0.90;99.90
31967;DHT22;18496;52.042;6.812;2022-12-10T10:07:54;0.90;99.90
31967;DHT22;18496;52.042;6.812;2022-12-10T10:10:03;0.90;99.90
31967;DHT22;18496;52.042;6.812;2022-12-10T10:12:14;0.90;99.90
31967;DHT22;18496;52.042;6.812;2022-12-10T10:14:27;0.90;99.90
31967;DHT22;18496;52.042;6.812;2022-12-10T10:16:44;0.80;99.90
31967;DHT22;18496;52.042;6.812;2022-12-10T10:19:06;0.80;99.90
31967;DHT22;18496;52.042;6.812;2022-12-10T10:21:27;0.80;99.90
31967;DHT22;18496;52.042;6.812;2022-12-10T10:23:34;0.80;99.90
31967;DHT22;18496;52.042;6.812;2022-12-10T10:25:41;0.80;99.90
31967;DHT22;18496;52.042;6.812;2022-12-10T10:27:45;0.80;99.90
31967;DHT22;18496;52.042;6.812;2022-12-10T10:29:52;0.80;99.90
31967;DHT22;18496;52.042;6.812;2022-12-10T10:32:18;0.80;99.90
31967;DHT22;18496;52.042;6.812;2022-12-10T10:34:23;0.80;99.90
31967;DHT22;18496;52.042;6.812;2022-12-10T10:36:32;0.80;99.90
31967;DHT22;18496;52.042;6.812;2022-12-10T10:38:36;0.80;99.90
31967;DHT22;18496;52.042;6.812;2022-12-10T10:40:43;0.90;99.90
31967;DHT22;18496;52.042;6.812;2022-12-10T10:42:47;0.90;99.90
31967;DHT22;18496;52.042;6.812;2022-12-10T10:44:51;0.90;99.90
31967;DHT22;18496;52.042;6.812;2022-12-10T10:46:55;0.90;99.90
31967;DHT22;18496;52.042;6.812;2022-12-10T10:49:14;0.90;99.90
31967;DHT22;18496;52.042;6.812;2022-12-10T10:51:22;0.90;99.90
31967;DHT22;18496;52.042;6.812;2022-12-10T10:53:41;1.00;99.90
31967;DHT22;18496;52.042;6.812;2022-12-10T10:55:49;1.00;99.90
31967;DHT22;18496;52.042;6.812;2022-12-10T10:57:56;0.90;99.90
31967;DHT22;18496;52.042;6.812;2022-12-10T11:00:07;0.90;99.90
31967;DHT22;18496;52.042;6.812;2022-12-10T11:02:35;0.90;99.90
31967;DHT22;18496;52.042;6.812;2022-12-10T11:04:54;0.90;99.90
31967;DHT22;18496;52.042;6.812;2022-12-10T11:07:02;1.00;99.90
31967;DHT22;18496;52.042;6.812;2022-12-10T11:09:06;1.00;99.90
31967;DHT22;18496;52.042;6.812;2022-12-10T11:11:37;1.00;99.90
31967;DHT22;18496;52.042;6.812;2022-12-10T11:13:44;1.00;99.90
31967;DHT22;18496;52.042;6.812;2022-12-10T11:16:27;1.00;99.90
31967;DHT22;18496;52.042;6.812;2022-12-10T11:18:37;1.00;99.90
31967;DHT22;18496;52.042;6.812;2022-12-10T11:20:42;1.10;99.90
31967;DHT22;18496;52.042;6.812;2022-12-10T11:23:08;1.10;99.90
31967;DHT22;18496;52.042;6.812;2022-12-10T11:25:12;1.10;99.90
31967;DHT22;18496;52.042;6.812;2022-12-10T11:29:59;1.10;99.90
31967;DHT22;18496;52.042;6.812;2022-12-10T11:32:26;1.20;99.90
31967;DHT22;18496;52.042;6.812;2022-12-10T11:37:03;1.10;99.90
31967;DHT22;18496;52.042;6.812;2022-12-10T11:39:44;1.10;99.90
31967;DHT22;18496;52.042;6.812;2022-12-10T11:42:04;1.20;99.90
31967;DHT22;18496;52.042;6.812;2022-12-10T11:44:39;1.20;99.90
31967;DHT22;18496;52.042;6.812;2022-12-10T11:51:34;1.30;99.90
31967;DHT22;18496;52.042;6.812;2022-12-10T11:54:10;1.40;99.90
31967;DHT22;18496;52.042;6.812;2022-12-10T11:56:31;1.40;99.90
31967;DHT22;18496;52.042;6.812;2022-12-10T12:01:24;1.40;99.90
31967;DHT22;18496;52.042;6.812;2022-12-10T12:06:31;1.50;99.90
31967;DHT22;18496;52.042;6.812;2022-12-10T12:13:38;1.40;99.90
31967;DHT22;18496;52.042;6.812;2022-12-10T12:15:54;1.40;99.90
31967;DHT22;18496;52.042;6.812;2022-12-10T12:18:10;1.50;99.90
31967;DHT22;18496;52.042;6.812;2022-12-10T12:20:34;1.50;99.90
31967;DHT22;18496;52.042;6.812;2022-12-10T12:22:46;1.50;99.90
31967;DHT22;18496;52.042;6.812;2022-12-10T12:25:02;1.50;99.90
31967;DHT22;18496;52.042;6.812;2022-12-10T12:27:12;1.50;99.90
31967;DHT22;18496;52.042;6.812;2022-12-10T12:31:36;1.50;99.90
31967;DHT22;18496;52.042;6.812;2022-12-10T12:33:49;1.50;99.90
31967;DHT22;18496;52.042;6.812;2022-12-10T12:36:08;1.50;99.90
31967;DHT22;18496;52.042;6.812;2022-12-10T12:40:28;1.40;99.90
31967;DHT22;18496;52.042;6.812;2022-12-10T12:42:41;1.40;99.90
31967;DHT22;18496;52.042;6.812;2022-12-10T12:44:59;1.40;99.90
31967;DHT22;18496;52.042;6.812;2022-12-10T12:49:35;1.50;99.90
31967;DHT22;18496;52.042;6.812;2022-12-10T12:51:52;1.50;99.90
31967;DHT22;18496;52.042;6.812;2022-12-10T12:54:02;1.50;99.90
31967;DHT22;18496;52.042;6.812;2022-12-10T13:00:54;1.50;99.90
31967;DHT22;18496;52.042;6.812;2022-12-10T13:05:14;1.60;99.90
31967;DHT22;18496;52.042;6.812;2022-12-10T13:09:27;1.60;99.90
31967;DHT22;18496;52.042;6.812;2022-12-10T13:11:34;1.60;99.90
31967;DHT22;18496;52.042;6.812;2022-12-10T13:14:02;1.60;99.90
31967;DHT22;18496;52.042;6.812;2022-12-10T13:18:41;1.70;99.90
31967;DHT22;18496;52.042;6.812;2022-12-10T13:23:28;1.70;99.90
31967;DHT22;18496;52.042;6.812;2022-12-10T13:25:55;1.80;99.90
31967;DHT22;18496;52.042;6.812;2022-12-10T13:30:35;1.80;99.90
31967;DHT22;18496;52.042;6.812;2022-12-10T13:34:44;1.70;99.90
31967;DHT22;18496;52.042;6.812;2022-12-10T13:41:10;1.70;99.90
31967;DHT22;18496;52.042;6.812;2022-12-10T13:43:37;1.70;99.90
31967;DHT22;18496;52.042;6.812;2022-12-10T13:46:50;1.70;99.90
31967;DHT22;18496;52.042;6.812;2022-12-10T13:48:59;1.70;99.90
31967;DHT22;18496;52.042;6.812;2022-12-10T13:53:58;1.70;99.90
31967;DHT22;18496;52.042;6.812;2022-12-10T13:56:12;1.70;99.90
31967;DHT22;18496;52.042;6.812;2022-12-10T14:01:02;1.70;99.90
31967;DHT22;18496;52.042;6.812;2022-12-10T14:07:29;1.80;99.90
31967;DHT22;18496;52.042;6.812;2022-12-10T14:09:38;1.80;99.90
31967;DHT22;18496;52.042;6.812;2022-12-10T14:12:14;1.80;99.90
31967;DHT22;18496;52.042;6.812;2022-12-10T14:14:50;1.80;99.90
31967;DHT22;18496;52.042;6.812;2022-12-10T14:16:55;1.80;99.90
31967;DHT22;18496;52.042;6.812;2022-12-10T14:19:12;1.70;99.90
31967;DHT22;18496;52.042;6.812;2022-12-10T14:21:17;1.70;99.90
31967;DHT22;18496;52.042;6.812;2022-12-10T14:23:27;1.70;99.90
31967;DHT22;18496;52.042;6.812;2022-12-10T14:25:42;1.80;99.90
31967;DHT22;18496;52.042;6.812;2022-12-10T14:27:53;1.80;99.90
31967;DHT22;18496;52.042;6.812;2022-12-10T14:30:02;1.80;99.90
31967;DHT22;18496;52.042;6.812;2022-12-10T14:32:06;1.90;99.90
31967;DHT22;18496;52.042;6.812;2022-12-10T14:34:17;2.00;99.90
31967;DHT22;18496;52.042;6.812;2022-12-10T14:36:47;2.00;99.90
31967;DHT22;18496;52.042;6.812;2022-12-10T14:38:52;2.00;99.90
31967;DHT22;18496;52.042;6.812;2022-12-10T14:40:56;2.00;99.90
31967;DHT22;18496;52.042;6.812;2022-12-10T14:43:12;2.00;99.90
31967;DHT22;18496;52.042;6.812;2022-12-10T14:45:16;2.00;99.90
31967;DHT22;18496;52.042;6.812;2022-12-10T14:47:22;2.00;99.90
31967;DHT22;18496;52.042;6.812;2022-12-10T14:49:26;2.00;99.90
31967;DHT22;18496;52.042;6.812;2022-12-10T14:51:33;2.00;99.90
31967;DHT22;18496;52.042;6.812;2022-12-10T14:53:40;2.00;99.90
31967;DHT22;18496;52.042;6.812;2022-12-10T14:55:46;1.90;99.90
31967;DHT22;18496;52.042;6.812;2022-12-10T14:57:59;1.90;99.90
31967;DHT22;18496;52.042;6.812;2022-12-10T15:02:37;1.80;99.90
31967;DHT22;18496;52.042;6.812;2022-12-10T15:04:42;1.80;99.90